createdAt,value
2023-05-02T00:01:43.540Z,8.80
2023-05-02T00:04:10.553Z,13.50
2023-05-02T00:06:37.518Z,16.70
2023-05-02T00:09:04.318Z,13.63
2023-05-02T00:11:31.158Z,18.57
2023-05-02T00:13:57.996Z,16.50
2023-05-02T00:16:24.813Z,15.57
2023-05-02T00:18:51.554Z,17.63
2023-05-02T00:21:18.258Z,19.10
2023-05-02T00:23:44.921Z,20.63
2023-05-02T00:26:11.522Z,22.27
2023-05-02T00:28:38.236Z,19.37
2023-05-02T00:31:05.424Z,19.17
2023-05-02T00:33:32.098Z,20.87
2023-05-02T00:35:58.804Z,19.80
2023-05-02T00:38:25.430Z,22.43
2023-05-02T00:40:53.433Z,22.73
2023-05-02T00:43:20.682Z,20.73
2023-05-02T00:45:48.000Z,20.70
2023-05-02T00:48:14.935Z,22.50
2023-05-02T00:50:43.144Z,19.97
2023-05-02T00:53:10.967Z,23.90
2023-05-02T00:55:38.225Z,22.83
2023-05-02T00:58:08.769Z,21.43
2023-05-02T01:00:58.417Z,20.87
2023-05-02T01:03:28.062Z,21.93
2023-05-02T01:06:18.546Z,19.70
2023-05-02T01:09:22.257Z,24.67
2023-05-02T01:12:01.024Z,25.03
2023-05-02T01:14:31.115Z,24.60
2023-05-02T01:17:04.483Z,21.17
2023-05-02T01:19:38.356Z,24.53
2023-05-02T01:22:08.395Z,26.47
2023-05-02T01:25:12.554Z,27.83
2023-05-02T01:27:42.119Z,26.33
2023-05-02T01:30:11.001Z,27.87
2023-05-02T01:32:41.592Z,28.43
2023-05-02T01:35:09.969Z,32.00
2023-05-02T01:37:39.687Z,31.60
2023-05-02T01:40:08.930Z,31.93
2023-05-02T01:42:37.279Z,30.33
2023-05-02T01:45:08.786Z,31.23
2023-05-02T01:47:36.971Z,32.70
2023-05-02T01:50:06.341Z,37.83
2023-05-02T01:52:33.738Z,30.70
2023-05-02T01:55:01.441Z,35.43
2023-05-02T01:57:28.168Z,29.03
2023-05-02T01:59:59.756Z,28.70
2023-05-02T02:02:28.593Z,29.27
2023-05-02T02:04:57.869Z,30.63
2023-05-02T02:07:24.563Z,29.73
2023-05-02T02:09:53.061Z,27.30
2023-05-02T02:12:31.495Z,27.87
2023-05-02T02:15:06.938Z,27.87
2023-05-02T02:17:43.381Z,28.97
2023-05-02T02:20:12.652Z,27.47
2023-05-02T02:22:41.219Z,30.87
2023-05-02T02:25:11.701Z,28.73
2023-05-02T02:27:38.723Z,28.30
2023-05-02T02:30:06.200Z,31.43
2023-05-02T02:32:33.038Z,26.53
2023-05-02T02:35:00.358Z,27.63
2023-05-02T02:37:32.745Z,30.10
2023-05-02T02:40:10.221Z,28.60
2023-05-02T02:42:45.100Z,27.43
2023-05-02T02:45:28.393Z,28.03
2023-05-02T02:48:21.328Z,27.87
2023-05-02T02:51:02.492Z,28.40
2023-05-02T02:53:58.866Z,27.77
2023-05-02T02:56:47.578Z,28.17
2023-05-02T02:59:23.284Z,27.07
2023-05-02T03:02:17.400Z,27.73
2023-05-02T03:04:46.460Z,26.30
2023-05-02T03:07:13.851Z,29.67
2023-05-02T03:09:45.181Z,24.20
2023-05-02T03:12:12.410Z,25.83
2023-05-02T03:14:39.895Z,28.60
2023-05-02T03:17:08.478Z,25.97
2023-05-02T03:19:35.550Z,32.30
2023-05-02T03:22:02.163Z,29.63
2023-05-02T03:24:28.863Z,30.73
2023-05-02T03:26:59.673Z,28.90
2023-05-02T03:29:26.866Z,30.67
2023-05-02T03:31:53.578Z,33.37
2023-05-02T03:34:22.239Z,30.17
2023-05-02T03:36:49.302Z,33.30
2023-05-02T03:39:16.097Z,34.50
2023-05-02T03:41:44.004Z,36.20
2023-05-02T03:44:11.094Z,37.67
2023-05-02T03:46:38.040Z,33.57
2023-05-02T03:49:04.830Z,34.93
2023-05-02T03:51:33.858Z,34.50
2023-05-02T03:54:05.368Z,28.50
2023-05-02T03:56:32.796Z,32.73
2023-05-02T03:58:59.572Z,33.33
2023-05-02T04:01:27.446Z,33.03
2023-05-02T04:03:54.553Z,35.20
2023-05-02T04:06:21.554Z,31.67
2023-05-02T04:08:49.173Z,29.50
2023-05-02T04:11:18.427Z,28.03
2023-05-02T04:14:05.621Z,27.77
2023-05-02T04:16:34.413Z,24.97
2023-05-02T04:19:22.125Z,24.50
2023-05-02T04:22:09.350Z,25.53
2023-05-02T04:24:56.180Z,25.23
2023-05-02T04:27:43.423Z,20.00
2023-05-02T04:30:31.413Z,21.33
2023-05-02T04:33:18.789Z,26.40
2023-05-02T04:36:05.858Z,21.20
2023-05-02T04:38:35.725Z,20.57
2023-05-02T04:41:23.282Z,20.13
2023-05-02T04:43:53.756Z,23.03
2023-05-02T04:46:21.029Z,16.67
2023-05-02T04:48:47.781Z,6.10
2023-05-02T04:51:16.838Z,4.30
2023-05-02T04:53:43.784Z,5.93
2023-05-02T04:56:13.430Z,6.97
2023-05-02T04:58:40.667Z,9.47
2023-05-02T05:01:07.846Z,7.00
2023-05-02T05:03:34.731Z,8.17
2023-05-02T05:06:02.605Z,12.30
2023-05-02T05:08:29.438Z,8.53
2023-05-02T05:10:56.236Z,8.33
2023-05-02T05:13:22.891Z,8.77
2023-05-02T05:15:49.860Z,9.47
2023-05-02T05:18:16.868Z,11.87
2023-05-02T05:20:43.773Z,6.93
2023-05-02T05:23:10.513Z,10.33
2023-05-02T05:25:37.322Z,8.40
2023-05-02T05:28:03.976Z,13.33
2023-05-02T05:30:31.172Z,10.87
2023-05-02T05:33:00.756Z,12.30
2023-05-02T05:35:27.461Z,11.37
2023-05-02T05:37:54.130Z,14.23
2023-05-02T05:40:21.511Z,20.93
2023-05-02T05:42:48.268Z,17.40
2023-05-02T05:45:17.280Z,17.33
2023-05-02T05:47:44.284Z,15.00
2023-05-02T05:50:11.210Z,13.30
2023-05-02T05:52:37.924Z,18.67
2023-05-02T05:55:05.210Z,13.83
2023-05-02T05:57:32.381Z,13.43
2023-05-02T06:00:00.645Z,14.87
2023-05-02T06:02:27.860Z,12.30
2023-05-02T06:04:55.462Z,15.77
2023-05-02T06:07:22.188Z,17.90
2023-05-02T06:09:48.915Z,12.93
2023-05-02T06:12:16.511Z,10.93
2023-05-02T06:14:44.025Z,13.67
2023-05-02T06:17:10.867Z,10.97
2023-05-02T06:19:38.603Z,14.23
2023-05-02T06:22:05.721Z,14.30
2023-05-02T06:24:32.373Z,11.83
2023-05-02T06:26:59.303Z,18.50
2023-05-02T06:29:26.035Z,12.80
2023-05-02T06:31:56.166Z,15.50
2023-05-02T06:34:23.198Z,12.27
2023-05-02T06:36:56.571Z,16.10
2023-05-02T06:39:24.246Z,16.33
2023-05-02T06:41:51.142Z,14.27
2023-05-02T06:44:18.018Z,13.00
2023-05-02T06:46:46.359Z,13.00
2023-05-02T06:49:13.285Z,22.33
2023-05-02T06:51:41.016Z,16.00
2023-05-02T06:54:07.871Z,10.63
2023-05-02T06:56:35.561Z,15.73
2023-05-02T06:59:08.350Z,16.33
2023-05-02T07:01:35.483Z,14.23
2023-05-02T07:04:06.296Z,14.33
2023-05-02T07:06:33.676Z,20.10
2023-05-02T07:09:00.686Z,13.97
2023-05-02T07:11:28.991Z,11.67
2023-05-02T07:13:55.932Z,15.83
2023-05-02T07:16:22.862Z,13.80
2023-05-02T07:18:49.757Z,18.40
2023-05-02T07:21:18.304Z,13.13
2023-05-02T07:23:45.185Z,11.83
2023-05-02T07:26:12.618Z,15.97
2023-05-02T07:28:39.469Z,13.13
2023-05-02T07:31:06.460Z,9.67
2023-05-02T07:33:33.296Z,10.60
2023-05-02T07:36:01.986Z,10.67
2023-05-02T07:38:29.064Z,11.77
2023-05-02T07:40:59.264Z,17.13
2023-05-02T07:43:26.702Z,11.43
2023-05-02T07:45:53.623Z,9.87
2023-05-02T07:48:20.452Z,9.00
2023-05-02T07:50:47.206Z,10.47
2023-05-02T07:53:13.900Z,11.50
2023-05-02T07:55:40.785Z,13.23
2023-05-02T07:58:07.444Z,12.87
2023-05-02T08:00:34.109Z,14.17
2023-05-02T08:03:00.888Z,10.63
2023-05-02T08:05:27.707Z,5.57
2023-05-02T08:07:54.500Z,6.90
2023-05-02T08:10:21.109Z,5.57
2023-05-02T08:12:47.800Z,6.07
2023-05-02T08:15:14.502Z,11.17
2023-05-02T08:17:41.469Z,9.03
2023-05-02T08:20:08.654Z,10.00
2023-05-02T08:22:35.379Z,5.43
2023-05-02T08:25:02.017Z,5.17
2023-05-02T08:27:28.777Z,6.93
2023-05-02T08:29:56.761Z,5.47
2023-05-02T08:32:24.825Z,11.67
2023-05-02T08:34:55.890Z,7.23
2023-05-02T08:37:23.158Z,5.13
2023-05-02T08:39:49.918Z,7.27
2023-05-02T08:42:16.910Z,8.40
2023-05-02T08:44:43.645Z,9.47
2023-05-02T08:47:15.128Z,8.80
2023-05-02T08:49:43.077Z,11.57
2023-05-02T08:52:12.239Z,8.33
2023-05-02T08:54:39.309Z,7.90
2023-05-02T08:57:06.060Z,9.33
2023-05-02T08:59:34.419Z,8.07
2023-05-02T09:02:10.522Z,7.63
2023-05-02T09:04:42.005Z,7.27
2023-05-02T09:07:10.735Z,6.73
2023-05-02T09:09:37.764Z,6.40
2023-05-02T09:12:04.477Z,12.17
2023-05-02T09:14:31.275Z,10.80
2023-05-02T09:17:01.976Z,10.03
2023-05-02T09:19:29.090Z,8.67
2023-05-02T09:22:02.499Z,11.67
2023-05-02T09:24:29.918Z,11.17
2023-05-02T09:27:04.982Z,7.43
2023-05-02T09:29:38.008Z,8.97
2023-05-02T09:32:06.423Z,9.47
2023-05-02T09:34:34.165Z,8.80
2023-05-02T09:37:01.629Z,9.33
2023-05-02T09:39:29.401Z,9.60
2023-05-02T09:41:58.212Z,8.57
2023-05-02T09:44:27.694Z,7.97
2023-05-02T09:46:57.645Z,8.27
2023-05-02T09:49:45.948Z,9.63
2023-05-02T09:52:17.832Z,8.93
2023-05-02T09:54:46.915Z,8.00
2023-05-02T09:57:14.186Z,9.67
2023-05-02T09:59:41.531Z,9.20
2023-05-02T10:02:12.017Z,9.87
2023-05-02T10:04:40.235Z,10.03
2023-05-02T10:07:10.616Z,13.43
2023-05-02T10:09:43.343Z,8.83
2023-05-02T10:12:11.298Z,8.57
2023-05-02T10:14:43.295Z,11.93
2023-05-02T10:17:18.431Z,14.67
2023-05-02T10:20:02.299Z,9.03
2023-05-02T10:22:29.716Z,10.47
2023-05-02T10:24:58.399Z,8.33
2023-05-02T10:27:26.045Z,10.47
2023-05-02T10:29:53.638Z,8.27
2023-05-02T10:32:23.303Z,9.00
2023-05-02T10:34:51.868Z,11.67
2023-05-02T10:37:19.996Z,5.77
2023-05-02T10:39:46.996Z,6.17
2023-05-02T10:42:14.635Z,8.00
2023-05-02T10:44:41.749Z,5.60
2023-05-02T10:47:26.968Z,8.03
2023-05-02T10:50:01.966Z,8.80
2023-05-02T10:52:34.456Z,10.57
2023-05-02T10:55:23.921Z,8.60
2023-05-02T10:57:59.892Z,7.57
2023-05-02T11:00:32.044Z,6.90
2023-05-02T11:02:59.911Z,7.67
2023-05-02T11:05:28.034Z,9.47
2023-05-02T11:08:23.278Z,6.60
2023-05-02T11:10:50.200Z,10.70
2023-05-02T11:13:16.900Z,6.30
2023-05-02T11:15:43.474Z,6.27
2023-05-02T11:18:12.941Z,9.40
2023-05-02T11:20:44.412Z,10.80
2023-05-02T11:23:14.173Z,9.27
2023-05-02T11:25:46.496Z,7.20
2023-05-02T11:28:58.448Z,7.47
2023-05-02T11:31:28.419Z,6.63
2023-05-02T11:33:59.111Z,7.00
2023-05-02T11:36:36.810Z,11.33
2023-05-02T11:39:05.859Z,8.30
2023-05-02T11:41:44.278Z,10.37
2023-05-02T11:44:10.980Z,6.23
2023-05-02T11:46:39.106Z,9.47
2023-05-02T11:49:08.818Z,7.90
2023-05-02T11:51:36.598Z,9.73
2023-05-02T11:54:04.020Z,6.73
2023-05-02T11:56:31.664Z,8.03
2023-05-02T11:59:00.004Z,5.73
2023-05-02T12:01:27.479Z,8.60
2023-05-02T12:04:04.323Z,5.70
2023-05-02T12:06:31.441Z,8.37
2023-05-02T12:09:09.738Z,6.93
2023-05-02T12:11:38.606Z,5.20
2023-05-02T12:14:07.177Z,8.10
2023-05-02T12:16:34.441Z,10.37
2023-05-02T12:19:01.544Z,7.17
2023-05-02T12:21:30.040Z,6.20
2023-05-02T12:23:57.295Z,5.30
2023-05-02T12:26:29.246Z,8.43
2023-05-02T12:28:56.710Z,4.43
2023-05-02T12:31:23.897Z,6.10
2023-05-02T12:33:52.534Z,8.80
2023-05-02T12:36:19.864Z,9.20
2023-05-02T12:38:55.115Z,6.77
2023-05-02T12:41:37.076Z,8.33
2023-05-02T12:44:05.082Z,6.17
2023-05-02T12:46:32.201Z,5.97
2023-05-02T12:49:08.495Z,6.37
2023-05-02T12:51:36.487Z,6.00
2023-05-02T12:54:04.458Z,9.20
2023-05-02T12:56:39.004Z,5.63
2023-05-02T12:59:05.868Z,10.20
2023-05-02T13:01:35.995Z,8.07
2023-05-02T13:04:03.288Z,8.80
2023-05-02T13:06:30.282Z,7.50
2023-05-02T13:08:57.167Z,4.93
2023-05-02T13:11:24.329Z,9.07
2023-05-02T13:13:51.595Z,7.10
2023-05-02T13:16:18.594Z,9.80
2023-05-02T13:18:47.802Z,11.43
2023-05-02T13:21:14.828Z,9.50
2023-05-02T13:23:41.611Z,7.83
2023-05-02T13:26:08.292Z,8.40
2023-05-02T13:28:37.606Z,7.00
2023-05-02T13:31:05.387Z,5.63
2023-05-02T13:33:32.019Z,7.70
2023-05-02T13:35:58.686Z,4.93
2023-05-02T13:38:25.852Z,4.60
2023-05-02T13:40:54.147Z,4.83
2023-05-02T13:43:21.119Z,6.83
2023-05-02T13:45:49.024Z,5.10
2023-05-02T13:48:16.097Z,6.13
2023-05-02T13:50:43.071Z,4.13
2023-05-02T13:53:09.754Z,7.00
2023-05-02T13:55:36.423Z,6.00
2023-05-02T13:58:03.178Z,4.57
2023-05-02T14:00:30.068Z,6.57
2023-05-02T14:02:56.910Z,7.57
2023-05-02T14:05:23.864Z,4.93
2023-05-02T14:07:50.494Z,8.70
2023-05-02T14:10:17.309Z,5.33
2023-05-02T14:12:43.958Z,7.10
2023-05-02T14:15:11.401Z,8.17
2023-05-02T14:17:38.177Z,6.80
2023-05-02T14:20:05.945Z,4.90
2023-05-02T14:22:36.653Z,3.53
2023-05-02T14:25:03.614Z,3.90
2023-05-02T14:27:30.545Z,4.97
2023-05-02T14:29:57.399Z,5.83
2023-05-02T14:32:24.137Z,4.03
2023-05-02T14:34:50.842Z,5.63
2023-05-02T14:37:17.481Z,4.63
2023-05-02T14:39:47.443Z,3.17
2023-05-02T14:42:15.187Z,3.57
2023-05-02T14:44:42.264Z,4.60
2023-05-02T14:47:09.230Z,2.97
2023-05-02T14:49:36.229Z,3.77
2023-05-02T14:52:03.121Z,5.23
2023-05-02T14:54:30.740Z,3.97
2023-05-02T14:57:00.731Z,3.23
2023-05-02T14:59:31.114Z,2.90
2023-05-02T15:01:58.090Z,7.77
2023-05-02T15:04:27.405Z,3.27
2023-05-02T15:06:55.585Z,6.03
2023-05-02T15:09:23.409Z,4.20
2023-05-02T15:11:50.119Z,4.47
2023-05-02T15:14:16.849Z,3.80
2023-05-02T15:16:43.773Z,4.40
2023-05-02T15:19:10.793Z,4.27
2023-05-02T15:21:37.569Z,4.33
2023-05-02T15:24:04.424Z,3.77
2023-05-02T15:26:31.414Z,3.17
2023-05-02T15:28:58.444Z,3.93
2023-05-02T15:31:25.299Z,3.60
2023-05-02T15:33:52.093Z,3.03
2023-05-02T15:36:18.833Z,3.23
2023-05-02T15:38:45.483Z,2.97
2023-05-02T15:41:12.186Z,4.07
2023-05-02T15:43:39.016Z,6.70
2023-05-02T15:46:05.898Z,2.87
2023-05-02T15:48:33.590Z,4.03
2023-05-02T15:51:01.382Z,3.87
2023-05-02T15:53:28.783Z,4.47
2023-05-02T15:55:55.568Z,3.03
2023-05-02T15:58:22.436Z,3.87
2023-05-02T16:00:49.327Z,3.67
2023-05-02T16:03:16.479Z,4.13
2023-05-02T16:05:43.346Z,3.90
2023-05-02T16:08:10.400Z,3.60
2023-05-02T16:10:39.253Z,5.30
2023-05-02T16:13:06.015Z,3.37
2023-05-02T16:15:32.797Z,4.10
2023-05-02T16:17:59.661Z,3.77
2023-05-02T16:20:27.819Z,4.93
2023-05-02T16:22:54.552Z,4.10
2023-05-02T16:25:21.572Z,4.23
2023-05-02T16:27:48.310Z,4.27
2023-05-02T16:30:15.983Z,5.40
2023-05-02T16:32:42.735Z,4.40
2023-05-02T16:35:12.842Z,5.53
2023-05-02T16:37:41.060Z,3.60
2023-05-02T16:40:09.422Z,5.83
2023-05-02T16:42:37.203Z,5.63
2023-05-02T16:45:04.677Z,4.40
2023-05-02T16:47:31.774Z,6.40
2023-05-02T16:49:59.613Z,5.50
2023-05-02T16:52:27.136Z,3.70
2023-05-02T16:54:54.265Z,5.47
2023-05-02T16:57:21.754Z,5.30
2023-05-02T16:59:50.928Z,2.83
2023-05-02T17:02:22.428Z,4.30
2023-05-02T17:04:50.213Z,5.73
2023-05-02T17:07:17.348Z,7.43
2023-05-02T17:09:47.533Z,4.10
2023-05-02T17:12:15.432Z,2.20
2023-05-02T17:14:43.475Z,3.67
2023-05-02T17:17:10.717Z,3.87
2023-05-02T17:19:38.144Z,3.87
2023-05-02T17:22:05.408Z,6.77
2023-05-02T17:24:33.306Z,4.07
2023-05-02T17:27:01.042Z,4.07
2023-05-02T17:29:27.839Z,6.80
2023-05-02T17:31:57.028Z,6.70
2023-05-02T17:34:26.667Z,3.70
2023-05-02T17:36:53.331Z,6.57
2023-05-02T17:39:20.032Z,6.40
2023-05-02T17:41:46.726Z,7.07
2023-05-02T17:44:13.386Z,5.50
2023-05-02T17:46:40.210Z,5.20
2023-05-02T17:49:06.845Z,6.03
2023-05-02T17:51:33.864Z,3.67
2023-05-02T17:54:00.996Z,4.77
2023-05-02T17:56:28.440Z,4.70
2023-05-02T17:58:56.826Z,3.97
2023-05-02T18:01:24.469Z,4.10
2023-05-02T18:03:52.101Z,3.07
2023-05-02T18:06:19.270Z,5.60
2023-05-02T18:08:46.181Z,3.87
2023-05-02T18:11:20.507Z,2.67
2023-05-02T18:13:48.541Z,8.07
2023-05-02T18:16:15.935Z,8.47
2023-05-02T18:18:42.754Z,4.03
2023-05-02T18:21:09.903Z,3.97
2023-05-02T18:23:36.922Z,2.83
2023-05-02T18:26:04.298Z,3.83
2023-05-02T18:28:33.389Z,9.40
2023-05-02T18:31:00.187Z,7.17
2023-05-02T18:33:28.830Z,4.13
2023-05-02T18:35:56.102Z,3.77
2023-05-02T18:38:24.680Z,3.80
2023-05-02T18:40:51.780Z,4.37
2023-05-02T18:43:18.925Z,3.77
2023-05-02T18:45:46.066Z,3.57
2023-05-02T18:48:13.134Z,2.80
2023-05-02T18:50:39.939Z,3.47
2023-05-02T18:53:07.294Z,3.70
2023-05-02T18:55:34.377Z,3.17
2023-05-02T18:58:01.498Z,3.93
2023-05-02T19:00:31.364Z,6.47
2023-05-02T19:02:58.338Z,2.00
2023-05-02T19:05:25.389Z,5.53
2023-05-02T19:07:52.323Z,3.17
2023-05-02T19:10:19.322Z,4.97
2023-05-02T19:12:46.558Z,4.83
2023-05-02T19:15:13.447Z,2.40
2023-05-02T19:17:40.133Z,3.90
2023-05-02T19:20:07.579Z,3.53
2023-05-02T19:22:34.756Z,6.03
2023-05-02T19:25:01.874Z,5.07
2023-05-02T19:27:29.180Z,4.40
2023-05-02T19:29:58.135Z,4.03
2023-05-02T19:32:25.248Z,3.87
2023-05-02T19:34:52.268Z,4.27
2023-05-02T19:37:18.998Z,4.03
2023-05-02T19:39:46.633Z,5.23
2023-05-02T19:42:13.459Z,5.90
2023-05-02T19:44:41.411Z,3.70
2023-05-02T19:47:08.380Z,3.97
2023-05-02T19:49:35.133Z,3.97
2023-05-02T19:52:01.774Z,4.77
2023-05-02T19:54:28.475Z,3.33
2023-05-02T19:56:55.190Z,4.07
2023-05-02T19:59:21.897Z,3.10
2023-05-02T20:01:48.627Z,3.13
2023-05-02T20:04:15.512Z,3.57
2023-05-02T20:06:42.274Z,4.00
2023-05-02T20:09:09.147Z,6.03
2023-05-02T20:11:35.843Z,4.00
2023-05-02T20:14:03.107Z,3.83
2023-05-02T20:16:31.423Z,4.67
2023-05-02T20:18:58.373Z,4.50
2023-05-02T20:21:25.042Z,4.03
2023-05-02T20:23:52.130Z,4.90
2023-05-02T20:26:19.136Z,4.03
2023-05-02T20:28:45.832Z,3.77
2023-05-02T20:31:12.459Z,6.87
2023-05-02T20:33:45.255Z,7.90
2023-05-02T20:36:13.521Z,4.40
2023-05-02T20:38:42.628Z,7.47
2023-05-02T20:41:12.391Z,5.00
2023-05-02T20:43:45.120Z,5.53
2023-05-02T20:46:16.419Z,3.07
2023-05-02T20:48:43.290Z,4.57
2023-05-02T20:51:10.120Z,4.77
2023-05-02T20:53:38.142Z,6.57
2023-05-02T20:56:05.196Z,5.70
2023-05-02T20:58:32.239Z,4.23
2023-05-02T21:00:59.660Z,6.13
2023-05-02T21:03:27.634Z,6.53
2023-05-02T21:05:56.074Z,4.27
2023-05-02T21:08:23.112Z,5.20
2023-05-02T21:10:49.904Z,7.63
2023-05-02T21:13:16.765Z,3.60
2023-05-02T21:15:43.491Z,6.07
2023-05-02T21:18:10.174Z,5.87
2023-05-02T21:20:39.686Z,4.60
2023-05-02T21:23:06.535Z,6.37
2023-05-02T21:25:33.399Z,5.50
2023-05-02T21:28:00.124Z,4.53
2023-05-02T21:30:26.865Z,3.83
2023-05-02T21:32:53.588Z,4.33
2023-05-02T21:35:20.394Z,3.43
2023-05-02T21:37:47.043Z,7.63
2023-05-02T21:40:14.003Z,2.97
2023-05-02T21:42:41.067Z,6.73
2023-05-02T21:45:08.427Z,6.87
2023-05-02T21:47:35.126Z,3.67
2023-05-02T21:50:02.281Z,8.77
2023-05-02T21:52:29.404Z,3.80
2023-05-02T21:54:57.742Z,5.10
2023-05-02T21:57:25.028Z,4.80
2023-05-02T21:59:51.802Z,4.67
2023-05-02T22:02:18.996Z,5.33
2023-05-02T22:04:48.297Z,3.57
2023-05-02T22:07:16.333Z,4.77
2023-05-02T22:09:42.939Z,4.23
2023-05-02T22:12:09.675Z,5.77
2023-05-02T22:14:44.383Z,3.83
2023-05-02T22:17:13.474Z,4.67
2023-05-02T22:19:40.718Z,5.80
2023-05-02T22:22:07.678Z,4.87
2023-05-02T22:24:34.382Z,5.33
2023-05-02T22:27:01.690Z,4.77
2023-05-02T22:29:28.673Z,4.70
2023-05-02T22:31:55.777Z,6.57
2023-05-02T22:34:23.255Z,4.93
2023-05-02T22:36:49.964Z,5.43
2023-05-02T22:39:16.710Z,5.80
2023-05-02T22:41:43.602Z,5.07
2023-05-02T22:44:11.408Z,6.07
2023-05-02T22:46:38.766Z,4.13
2023-05-02T22:49:07.912Z,4.37
2023-05-02T22:51:34.643Z,7.43
2023-05-02T22:54:04.786Z,3.73
2023-05-02T22:56:31.780Z,6.33
2023-05-02T22:58:58.421Z,5.57
2023-05-02T23:01:25.120Z,5.63
2023-05-02T23:03:52.047Z,5.83
2023-05-02T23:06:19.108Z,6.60
2023-05-02T23:08:45.752Z,5.83
2023-05-02T23:11:12.404Z,3.97
2023-05-02T23:13:39.114Z,5.00
2023-05-02T23:16:06.275Z,3.83
2023-05-02T23:18:33.196Z,4.87
2023-05-02T23:20:59.971Z,4.23
2023-05-02T23:23:26.797Z,5.13
2023-05-02T23:25:53.482Z,6.00
2023-05-02T23:28:20.184Z,4.93
2023-05-02T23:30:47.497Z,4.53
2023-05-02T23:33:14.805Z,6.43
2023-05-02T23:35:41.563Z,6.93
2023-05-02T23:38:08.288Z,6.13
2023-05-02T23:40:35.029Z,4.57
2023-05-02T23:43:01.838Z,6.10
2023-05-02T23:45:28.485Z,4.70
2023-05-02T23:47:55.887Z,4.70
2023-05-02T23:50:22.577Z,4.20
2023-05-02T23:52:49.270Z,4.83
2023-05-02T23:55:16.090Z,4.83
2023-05-02T23:57:42.737Z,5.60
